Terminal Aerodrome Forecast
Issued by NWS Lubbock, TX

Home | Current Version | Previous Version | Text Only | Print | Product List | Glossary On
Versions: 1 2 3 4 5 6 7 8 9 10 11 12 13 14 15 16 17 18 19 20 21 22 23 24
000
FTUS44 KLUB 201100
TAFLBB
TAF
KLBB 201134Z 2012/2112 VRB03KT 5SM BR SCT010 SCT250
      TEMPO 2012/2015 2SM BR BKN010
     FM201500 20010KT P6SM FEW012 SCT250
     FM201800 18013KT P6SM BKN040 BKN250
      TEMPO 2020/2023 TSRA BKN045CB=

USA.gov is the U.S. government's official web portal to all federal, state and local government web resources and services.